createdAt,value
2022-08-31T00:00:01.114Z,0.00
2022-08-31T00:01:01.131Z,0.00
2022-08-31T00:02:01.161Z,0.00
2022-08-31T00:03:01.140Z,0.00
2022-08-31T00:04:01.116Z,0.00
2022-08-31T00:05:01.207Z,0.00
2022-08-31T00:06:01.113Z,0.00
2022-08-31T00:07:01.109Z,0.00
2022-08-31T00:08:01.107Z,0.00
2022-08-31T00:09:01.104Z,0.00
2022-08-31T00:10:01.106Z,0.00
2022-08-31T00:11:01.106Z,0.00
2022-08-31T00:12:01.107Z,0.00
2022-08-31T00:13:01.103Z,0.00
2022-08-31T00:14:01.121Z,0.00
2022-08-31T00:15:01.093Z,0.00
2022-08-31T00:16:01.134Z,0.00
2022-08-31T00:17:01.093Z,0.00
2022-08-31T00:18:01.088Z,0.00
2022-08-31T00:19:01.099Z,0.00
2022-08-31T00:20:01.096Z,0.00
2022-08-31T00:21:01.089Z,0.00
2022-08-31T00:22:01.083Z,0.00
2022-08-31T00:23:01.079Z,0.00
2022-08-31T00:24:01.084Z,0.00
2022-08-31T00:25:01.074Z,0.00
2022-08-31T00:26:01.084Z,0.00
2022-08-31T00:27:01.070Z,0.00
2022-08-31T00:28:01.075Z,0.00
2022-08-31T00:29:01.067Z,0.00
2022-08-31T00:30:01.077Z,0.00
2022-08-31T00:31:01.078Z,0.00
2022-08-31T00:32:01.141Z,0.00
2022-08-31T00:33:01.066Z,0.00
2022-08-31T00:34:01.076Z,0.00
2022-08-31T00:35:01.067Z,0.00
2022-08-31T00:36:01.065Z,0.00
2022-08-31T00:37:01.068Z,0.00
2022-08-31T00:38:01.058Z,0.00
2022-08-31T00:39:01.061Z,0.00
2022-08-31T00:40:01.159Z,0.00
2022-08-31T00:41:01.052Z,0.00
2022-08-31T00:42:01.071Z,0.00
2022-08-31T00:43:01.064Z,0.00
2022-08-31T00:44:01.061Z,0.00
2022-08-31T00:45:01.053Z,0.00
2022-08-31T00:46:01.085Z,0.00
2022-08-31T00:47:01.045Z,0.00
2022-08-31T00:48:01.052Z,0.00
2022-08-31T00:49:01.042Z,0.00
2022-08-31T00:50:01.041Z,0.00
2022-08-31T00:51:01.050Z,0.00
2022-08-31T00:52:01.052Z,0.00
2022-08-31T00:53:01.044Z,0.00
2022-08-31T00:54:01.031Z,0.00
2022-08-31T00:55:01.032Z,0.00
2022-08-31T00:56:01.040Z,0.00
2022-08-31T00:57:01.025Z,0.00
2022-08-31T00:58:01.038Z,0.00
2022-08-31T00:59:01.025Z,0.00
2022-08-31T01:00:01.028Z,0.00
2022-08-31T01:01:01.162Z,0.00
2022-08-31T01:02:01.070Z,0.00
2022-08-31T01:03:01.028Z,0.00
2022-08-31T01:04:01.017Z,0.00
2022-08-31T01:06:35.736Z,0.00
2022-08-31T01:07:35.734Z,0.00
2022-08-31T01:08:35.725Z,0.00
2022-08-31T01:09:35.720Z,0.00
2022-08-31T01:10:35.721Z,0.00
2022-08-31T01:11:35.719Z,0.00
2022-08-31T01:12:35.733Z,0.00
2022-08-31T01:13:35.788Z,0.00
2022-08-31T01:14:35.721Z,0.00
2022-08-31T01:15:35.725Z,0.00
2022-08-31T01:16:35.767Z,0.00
2022-08-31T01:17:35.703Z,0.00
2022-08-31T01:18:35.700Z,0.00
2022-08-31T01:19:35.703Z,0.00
2022-08-31T01:20:35.709Z,0.00
2022-08-31T01:21:35.709Z,0.00
2022-08-31T01:22:35.690Z,0.00
2022-08-31T01:23:35.690Z,0.00
2022-08-31T01:24:35.685Z,0.00
2022-08-31T01:25:35.690Z,0.00
2022-08-31T01:26:35.693Z,0.00
2022-08-31T01:27:35.695Z,0.00
2022-08-31T01:28:35.682Z,0.00
2022-08-31T01:29:35.673Z,0.00
2022-08-31T01:30:35.687Z,0.00
2022-08-31T01:31:35.708Z,0.00
2022-08-31T01:32:35.675Z,0.00
2022-08-31T01:33:35.677Z,0.00
2022-08-31T01:34:35.662Z,0.00
2022-08-31T01:35:35.663Z,0.00
2022-08-31T01:36:35.668Z,0.00
2022-08-31T01:37:36.523Z,0.00
2022-08-31T01:38:35.657Z,0.00
2022-08-31T01:39:35.666Z,0.00
2022-08-31T01:40:35.690Z,0.00
2022-08-31T01:41:35.655Z,0.00
2022-08-31T01:42:35.659Z,0.00
2022-08-31T01:43:35.651Z,0.00
2022-08-31T01:44:35.657Z,0.00
2022-08-31T01:45:35.647Z,0.00
2022-08-31T01:46:35.694Z,0.00
2022-08-31T01:47:35.639Z,0.00
2022-08-31T01:48:35.639Z,0.00
2022-08-31T01:49:35.645Z,0.00
2022-08-31T01:50:35.635Z,0.00
2022-08-31T01:51:35.635Z,0.00
2022-08-31T01:52:35.634Z,0.00
2022-08-31T01:53:35.636Z,0.00
2022-08-31T01:54:35.631Z,0.00
2022-08-31T01:55:35.630Z,0.00
2022-08-31T01:56:35.617Z,0.00
2022-08-31T01:57:35.621Z,0.00
2022-08-31T01:58:35.614Z,0.00
2022-08-31T01:59:35.621Z,0.00
2022-08-31T02:00:35.624Z,0.00
2022-08-31T02:01:35.642Z,0.00
2022-08-31T02:02:35.711Z,0.00
2022-08-31T02:03:35.616Z,0.00
2022-08-31T02:04:35.603Z,0.00
2022-08-31T02:05:35.609Z,0.00
2022-08-31T02:06:35.632Z,0.00
2022-08-31T02:07:35.608Z,0.00
2022-08-31T02:08:35.598Z,0.00
2022-08-31T02:09:35.592Z,0.00
2022-08-31T02:10:35.589Z,0.00
2022-08-31T02:11:35.597Z,0.00
2022-08-31T02:12:35.593Z,0.00
2022-08-31T02:13:35.582Z,0.00
2022-08-31T02:14:35.620Z,0.00
2022-08-31T02:15:35.579Z,0.00
2022-08-31T02:16:35.679Z,0.00
2022-08-31T02:17:35.588Z,0.00
2022-08-31T02:18:35.584Z,0.00
2022-08-31T02:19:35.587Z,0.00
2022-08-31T02:20:35.566Z,0.00
2022-08-31T02:21:36.874Z,0.00
2022-08-31T02:22:35.565Z,0.00
2022-08-31T02:23:35.569Z,0.00
2022-08-31T02:24:35.563Z,0.00
2022-08-31T02:25:35.564Z,0.00
2022-08-31T02:26:35.556Z,0.00
2022-08-31T02:27:35.567Z,0.00
2022-08-31T02:28:35.557Z,0.00
2022-08-31T02:29:35.557Z,0.00
2022-08-31T02:30:35.555Z,0.00
2022-08-31T02:31:35.647Z,0.00
2022-08-31T02:32:35.543Z,0.00
2022-08-31T02:33:35.547Z,0.00
2022-08-31T02:34:35.557Z,0.00
2022-08-31T02:35:35.552Z,0.00
2022-08-31T02:36:35.953Z,0.00
2022-08-31T02:37:35.604Z,0.00
2022-08-31T02:38:35.531Z,0.00
2022-08-31T02:39:35.534Z,0.00
2022-08-31T02:40:35.623Z,0.00
2022-08-31T02:41:35.530Z,0.00
2022-08-31T02:42:40.855Z,0.00
2022-08-31T02:43:35.541Z,0.00
2022-08-31T02:44:35.524Z,0.00
2022-08-31T02:45:35.513Z,0.00
2022-08-31T02:46:35.600Z,0.00
2022-08-31T02:47:35.520Z,0.00
2022-08-31T02:48:35.522Z,0.00
2022-08-31T02:49:35.533Z,0.00
2022-08-31T02:50:35.515Z,0.00
2022-08-31T02:51:35.503Z,0.00
2022-08-31T02:52:35.499Z,0.00
2022-08-31T02:53:35.507Z,0.00
2022-08-31T02:54:35.496Z,0.00
2022-08-31T02:55:35.499Z,0.00
2022-08-31T02:56:35.493Z,0.00
2022-08-31T02:57:35.488Z,0.00
2022-08-31T02:58:35.493Z,0.00
2022-08-31T02:59:35.485Z,0.00
2022-08-31T03:00:35.483Z,0.00
2022-08-31T03:01:35.561Z,0.00
2022-08-31T03:02:35.580Z,0.00
2022-08-31T03:03:35.496Z,0.00
2022-08-31T03:04:35.476Z,0.00
2022-08-31T03:05:35.484Z,0.00
2022-08-31T03:06:35.475Z,0.00
2022-08-31T03:07:35.476Z,0.00
2022-08-31T03:08:35.474Z,0.00
2022-08-31T03:09:35.478Z,0.00
2022-08-31T03:10:35.465Z,0.00
2022-08-31T03:11:35.473Z,0.00
2022-08-31T03:12:35.463Z,0.00
2022-08-31T03:13:35.458Z,0.00
2022-08-31T03:14:35.471Z,0.00
2022-08-31T03:15:35.494Z,0.00
2022-08-31T03:16:35.456Z,0.00
2022-08-31T03:17:35.455Z,0.00
2022-08-31T03:18:35.455Z,0.00
2022-08-31T03:19:35.458Z,0.00
2022-08-31T03:20:35.438Z,0.00
2022-08-31T03:21:35.438Z,0.00
2022-08-31T03:22:35.455Z,0.00
2022-08-31T03:23:35.431Z,0.00
2022-08-31T03:24:35.434Z,0.00
2022-08-31T03:25:35.431Z,0.00
2022-08-31T03:26:35.422Z,0.00
2022-08-31T03:27:35.420Z,0.00
2022-08-31T03:28:35.421Z,0.00
2022-08-31T03:29:35.422Z,0.00
2022-08-31T03:30:35.426Z,0.00
2022-08-31T03:31:35.478Z,0.00
2022-08-31T03:32:35.406Z,0.00
2022-08-31T03:33:35.405Z,0.00
2022-08-31T03:34:35.411Z,0.00
2022-08-31T03:35:35.409Z,0.00
2022-08-31T03:36:35.405Z,0.00
2022-08-31T03:37:35.410Z,0.00
2022-08-31T03:38:35.391Z,0.00
2022-08-31T03:39:35.402Z,0.00
2022-08-31T03:40:35.504Z,0.00
2022-08-31T03:41:35.396Z,0.00
2022-08-31T03:42:35.411Z,0.00
2022-08-31T03:43:35.393Z,0.00
2022-08-31T03:44:35.406Z,0.00
2022-08-31T03:45:35.382Z,0.00
2022-08-31T03:46:35.480Z,0.00
2022-08-31T03:47:35.379Z,0.00
2022-08-31T03:48:35.366Z,0.00
2022-08-31T03:49:35.367Z,0.00
2022-08-31T03:50:35.373Z,0.00
2022-08-31T03:51:35.372Z,0.00
2022-08-31T03:52:35.366Z,0.00
2022-08-31T03:53:35.364Z,0.00
2022-08-31T03:54:35.364Z,0.00
2022-08-31T03:55:35.352Z,0.00
2022-08-31T03:56:35.364Z,0.00
2022-08-31T03:57:35.360Z,0.00
2022-08-31T03:58:35.343Z,0.00
2022-08-31T03:59:35.350Z,0.00
2022-08-31T04:00:35.350Z,0.00
2022-08-31T04:01:35.397Z,0.00
2022-08-31T04:02:37.622Z,0.00
2022-08-31T04:03:35.354Z,0.00
2022-08-31T04:04:35.339Z,0.00
2022-08-31T04:05:35.337Z,0.00
2022-08-31T04:06:35.329Z,0.00
2022-08-31T04:07:42.335Z,0.00
2022-08-31T04:08:35.337Z,0.00
2022-08-31T04:09:35.323Z,0.00
2022-08-31T04:10:35.337Z,0.00
2022-08-31T04:11:44.796Z,0.00
2022-08-31T04:12:35.319Z,0.00
2022-08-31T04:13:35.317Z,0.00
2022-08-31T04:14:35.316Z,0.00
2022-08-31T04:15:35.368Z,0.00
2022-08-31T04:16:35.312Z,0.00
2022-08-31T04:17:35.310Z,0.00
2022-08-31T04:18:35.308Z,0.00
2022-08-31T04:19:35.300Z,0.00
2022-08-31T04:20:35.301Z,0.00
2022-08-31T04:21:35.302Z,0.00
2022-08-31T04:22:35.293Z,0.00
2022-08-31T04:23:35.300Z,0.00
2022-08-31T04:24:35.289Z,0.00
2022-08-31T04:25:35.285Z,0.00
2022-08-31T04:26:35.308Z,0.00
2022-08-31T04:27:35.298Z,0.00
2022-08-31T04:28:35.279Z,0.00
2022-08-31T04:29:35.274Z,0.00
2022-08-31T04:30:35.285Z,0.00
2022-08-31T04:31:35.317Z,0.00
2022-08-31T04:32:35.285Z,0.00
2022-08-31T04:33:35.295Z,0.00
2022-08-31T04:34:35.276Z,0.00
2022-08-31T04:35:35.277Z,0.00
2022-08-31T04:36:35.274Z,0.00
2022-08-31T04:37:35.274Z,0.00
2022-08-31T04:38:35.277Z,0.00
2022-08-31T04:39:35.271Z,0.00
2022-08-31T04:40:35.312Z,0.00
2022-08-31T04:41:35.267Z,0.00
2022-08-31T04:42:35.256Z,0.00
2022-08-31T04:43:35.251Z,0.00
2022-08-31T04:44:35.278Z,0.00
2022-08-31T04:45:35.291Z,0.00
2022-08-31T04:46:35.287Z,4.00
2022-08-31T04:47:35.246Z,4.00
2022-08-31T04:48:35.249Z,4.00
2022-08-31T04:49:35.239Z,4.00
2022-08-31T04:50:38.250Z,4.00
2022-08-31T04:51:35.249Z,4.00
2022-08-31T04:52:35.233Z,4.00
2022-08-31T04:53:35.235Z,4.00
2022-08-31T04:54:35.232Z,0.00
2022-08-31T04:55:35.253Z,4.00
2022-08-31T04:56:35.237Z,4.00
2022-08-31T04:57:35.224Z,4.00
2022-08-31T04:58:35.223Z,4.00
2022-08-31T04:59:35.226Z,4.00
2022-08-31T05:00:35.219Z,8.00
2022-08-31T05:01:42.546Z,8.00
2022-08-31T05:02:35.233Z,4.00
2022-08-31T05:03:35.223Z,8.00
2022-08-31T05:04:35.217Z,8.00
2022-08-31T05:05:35.215Z,8.00
2022-08-31T05:06:35.228Z,8.00
2022-08-31T05:07:35.213Z,12.00
2022-08-31T05:08:35.202Z,12.00
2022-08-31T05:09:35.204Z,12.00
2022-08-31T05:10:35.195Z,16.00
2022-08-31T05:11:35.206Z,16.00
2022-08-31T05:12:35.193Z,16.00
2022-08-31T05:13:35.196Z,20.00
2022-08-31T05:14:35.215Z,20.00
2022-08-31T05:15:35.231Z,20.00
2022-08-31T05:16:35.193Z,24.00
2022-08-31T05:17:35.186Z,24.00
2022-08-31T05:18:35.184Z,24.00
2022-08-31T05:19:39.184Z,24.00
2022-08-31T05:20:35.181Z,28.00
2022-08-31T05:21:35.172Z,32.00
2022-08-31T05:22:35.178Z,32.00
2022-08-31T05:23:35.177Z,36.00
2022-08-31T05:24:35.169Z,36.00
2022-08-31T05:25:35.161Z,40.00
2022-08-31T05:26:35.162Z,40.00
2022-08-31T05:27:35.171Z,44.00
2022-08-31T05:28:35.148Z,44.00
2022-08-31T05:29:35.169Z,44.00
2022-08-31T05:30:35.150Z,48.00
2022-08-31T05:31:35.158Z,52.00
2022-08-31T05:32:35.146Z,52.00
2022-08-31T05:33:35.155Z,56.00
2022-08-31T05:34:35.174Z,60.00
2022-08-31T05:35:35.141Z,64.00
2022-08-31T05:36:35.136Z,64.00
2022-08-31T05:37:35.138Z,68.00
2022-08-31T05:39:21.404Z,76.00
2022-08-31T05:40:21.433Z,80.00
2022-08-31T05:41:21.398Z,84.00
2022-08-31T05:42:21.398Z,88.00
2022-08-31T05:43:21.395Z,96.00
2022-08-31T05:44:21.506Z,104.00
2022-08-31T05:45:21.402Z,108.00
2022-08-31T05:46:21.462Z,112.00
2022-08-31T05:47:21.398Z,116.00
2022-08-31T05:48:21.394Z,128.00
2022-08-31T05:49:21.384Z,132.00
2022-08-31T05:50:21.396Z,140.00
2022-08-31T05:51:21.375Z,144.00
2022-08-31T05:52:25.093Z,156.00
2022-08-31T05:53:21.366Z,164.00
2022-08-31T05:54:21.356Z,168.00
2022-08-31T05:55:21.375Z,168.00
2022-08-31T05:56:21.378Z,176.00
2022-08-31T05:57:25.875Z,180.00
2022-08-31T05:58:21.359Z,188.00
2022-08-31T05:59:21.364Z,192.00
2022-08-31T06:00:21.373Z,200.00
2022-08-31T06:01:21.464Z,208.00
2022-08-31T06:02:21.511Z,216.00
2022-08-31T06:03:21.336Z,220.00
2022-08-31T06:04:21.336Z,216.00
2022-08-31T06:05:21.403Z,212.00
2022-08-31T06:06:21.353Z,216.00
2022-08-31T06:07:21.317Z,216.00
2022-08-31T06:08:21.599Z,220.00
2022-08-31T06:09:21.330Z,216.00
2022-08-31T06:10:21.339Z,220.00
2022-08-31T06:11:21.336Z,220.00
2022-08-31T06:12:21.305Z,220.00
2022-08-31T06:13:21.306Z,228.00
2022-08-31T06:14:21.313Z,236.00
2022-08-31T06:15:21.303Z,248.00
2022-08-31T06:16:21.554Z,260.00
2022-08-31T06:17:21.299Z,268.00
2022-08-31T06:18:21.299Z,272.00
2022-08-31T06:19:21.311Z,276.00
2022-08-31T06:20:21.297Z,280.00
2022-08-31T06:21:21.290Z,284.00
2022-08-31T06:22:21.284Z,288.00
2022-08-31T06:23:21.288Z,292.00
2022-08-31T06:24:21.279Z,288.00
2022-08-31T06:25:21.281Z,292.00
2022-08-31T06:26:21.281Z,292.00
2022-08-31T06:27:21.277Z,288.00
2022-08-31T06:28:21.273Z,280.00
2022-08-31T06:29:21.284Z,276.00
2022-08-31T06:30:21.269Z,272.00
2022-08-31T06:31:21.356Z,264.00
2022-08-31T06:32:21.292Z,264.00
2022-08-31T06:33:21.265Z,260.00
2022-08-31T06:34:21.270Z,252.00
2022-08-31T06:35:21.272Z,244.00
2022-08-31T06:36:21.248Z,244.00
2022-08-31T06:37:21.253Z,236.00
2022-08-31T06:38:21.250Z,236.00
2022-08-31T06:39:21.239Z,232.00
2022-08-31T06:40:21.266Z,228.00
2022-08-31T06:41:21.242Z,224.00
2022-08-31T06:42:21.235Z,224.00
2022-08-31T06:43:21.243Z,220.00
2022-08-31T06:44:21.238Z,212.00
2022-08-31T06:45:21.437Z,208.00
2022-08-31T06:46:21.538Z,208.00
2022-08-31T06:47:24.129Z,204.00
2022-08-31T06:48:21.228Z,200.00
2022-08-31T06:49:21.481Z,196.00
2022-08-31T06:50:21.428Z,196.00
2022-08-31T06:51:21.461Z,192.00
2022-08-31T06:52:21.219Z,192.00
2022-08-31T06:53:21.223Z,188.00
2022-08-31T06:54:30.111Z,188.00
2022-08-31T06:55:21.437Z,184.00
2022-08-31T06:56:21.367Z,188.00
2022-08-31T06:57:21.409Z,188.00
2022-08-31T06:58:21.444Z,188.00
2022-08-31T06:59:23.388Z,184.00
2022-08-31T07:00:21.207Z,188.00
2022-08-31T07:01:36.026Z,188.00
2022-08-31T07:02:21.498Z,188.00
2022-08-31T07:03:21.206Z,184.00
2022-08-31T07:04:24.029Z,192.00
2022-08-31T07:05:24.451Z,192.00
2022-08-31T07:06:21.392Z,192.00
2022-08-31T07:07:21.400Z,188.00
2022-08-31T07:08:21.445Z,184.00
2022-08-31T07:09:21.434Z,172.00
2022-08-31T07:10:21.424Z,164.00
2022-08-31T07:11:21.411Z,156.00
2022-08-31T07:12:22.241Z,152.00
2022-08-31T07:13:21.429Z,156.00
2022-08-31T07:14:21.384Z,160.00
2022-08-31T07:15:21.177Z,168.00
2022-08-31T07:16:21.508Z,172.00
2022-08-31T07:17:21.190Z,176.00
2022-08-31T07:18:21.432Z,176.00
2022-08-31T07:19:21.393Z,176.00
2022-08-31T07:20:21.186Z,172.00
2022-08-31T07:21:21.206Z,172.00
2022-08-31T07:22:21.188Z,176.00
2022-08-31T07:23:21.180Z,180.00
2022-08-31T07:24:21.183Z,176.00
2022-08-31T07:25:21.177Z,176.00
2022-08-31T07:26:21.177Z,176.00
2022-08-31T07:27:21.168Z,176.00
2022-08-31T07:28:21.197Z,176.00
2022-08-31T07:29:21.373Z,180.00
2022-08-31T07:30:21.176Z,180.00
2022-08-31T07:31:21.282Z,176.00
2022-08-31T07:32:21.186Z,176.00
2022-08-31T07:33:21.283Z,184.00
2022-08-31T07:34:21.175Z,184.00
2022-08-31T07:35:21.173Z,192.00
2022-08-31T07:36:21.180Z,196.00
2022-08-31T07:37:21.177Z,200.00
2022-08-31T07:38:21.172Z,204.00
2022-08-31T07:40:41.211Z,208.00
2022-08-31T07:41:39.664Z,208.00
2022-08-31T07:42:39.661Z,212.00
2022-08-31T07:43:39.656Z,216.00
2022-08-31T07:44:39.651Z,216.00
2022-08-31T07:45:39.741Z,216.00
2022-08-31T07:46:39.651Z,220.00
2022-08-31T07:47:39.664Z,216.00
2022-08-31T07:48:39.660Z,220.00
2022-08-31T07:49:39.659Z,220.00
2022-08-31T07:50:39.680Z,220.00
2022-08-31T07:51:39.655Z,220.00
2022-08-31T07:52:39.654Z,228.00
2022-08-31T07:53:39.660Z,228.00
2022-08-31T07:54:39.668Z,228.00
2022-08-31T07:55:39.663Z,232.00
2022-08-31T07:56:39.655Z,240.00
2022-08-31T07:57:39.661Z,244.00
2022-08-31T07:58:39.650Z,244.00
2022-08-31T07:59:39.654Z,248.00
2022-08-31T08:00:39.706Z,248.00
2022-08-31T08:01:39.678Z,248.00
2022-08-31T08:02:39.736Z,248.00
2022-08-31T08:03:39.685Z,248.00
2022-08-31T08:04:39.658Z,244.00
2022-08-31T08:05:40.711Z,244.00
2022-08-31T08:06:39.654Z,244.00
2022-08-31T08:07:39.672Z,248.00
2022-08-31T08:08:39.664Z,260.00
2022-08-31T08:09:39.651Z,264.00
2022-08-31T08:10:39.678Z,264.00
2022-08-31T08:11:39.689Z,264.00
2022-08-31T08:12:39.662Z,260.00
2022-08-31T08:13:39.658Z,256.00
2022-08-31T08:14:39.659Z,252.00
2022-08-31T08:15:40.505Z,252.00
2022-08-31T08:16:39.740Z,260.00
2022-08-31T08:17:39.656Z,264.00
2022-08-31T08:18:39.652Z,284.00
2022-08-31T08:19:39.654Z,296.00
2022-08-31T08:20:39.659Z,304.00
2022-08-31T08:21:39.658Z,300.00
2022-08-31T08:22:51.723Z,304.00
2022-08-31T08:23:39.659Z,300.00
2022-08-31T08:24:39.752Z,304.00
2022-08-31T08:25:39.672Z,308.00
2022-08-31T08:26:39.655Z,324.00
2022-08-31T08:27:39.653Z,336.00
2022-08-31T08:28:41.081Z,340.00
2022-08-31T08:29:39.664Z,356.00
2022-08-31T08:30:39.654Z,368.00
2022-08-31T08:31:39.690Z,380.00
2022-08-31T08:32:39.665Z,392.00
2022-08-31T08:33:39.667Z,392.00
2022-08-31T08:34:39.674Z,388.00
2022-08-31T08:35:39.658Z,376.00
2022-08-31T08:36:39.653Z,364.00
2022-08-31T08:37:57.056Z,364.00
2022-08-31T08:38:39.751Z,364.00
2022-08-31T08:39:39.659Z,364.00
2022-08-31T08:40:39.715Z,352.00
2022-08-31T08:41:39.660Z,340.00
2022-08-31T08:42:39.659Z,324.00
2022-08-31T08:43:39.660Z,292.00
2022-08-31T08:44:39.662Z,284.00
2022-08-31T08:45:39.706Z,268.00
2022-08-31T08:46:39.728Z,260.00
2022-08-31T08:47:39.927Z,264.00
2022-08-31T08:48:39.675Z,268.00
2022-08-31T08:49:39.666Z,268.00
2022-08-31T08:50:39.655Z,260.00
2022-08-31T08:51:39.662Z,256.00
2022-08-31T08:52:39.662Z,256.00
2022-08-31T08:53:39.689Z,256.00
2022-08-31T08:54:39.662Z,244.00
2022-08-31T08:55:39.676Z,228.00
2022-08-31T08:56:39.667Z,212.00
2022-08-31T08:57:39.667Z,200.00
2022-08-31T08:58:39.668Z,196.00
2022-08-31T08:59:39.670Z,188.00
2022-08-31T09:00:39.664Z,184.00
2022-08-31T09:01:39.694Z,180.00
2022-08-31T09:02:39.812Z,172.00
2022-08-31T09:03:39.667Z,172.00
2022-08-31T09:04:39.658Z,168.00
2022-08-31T09:05:39.664Z,172.00
2022-08-31T09:06:45.388Z,168.00
2022-08-31T09:07:39.666Z,168.00
2022-08-31T09:08:39.676Z,172.00
2022-08-31T09:09:39.700Z,172.00
2022-08-31T09:10:39.677Z,172.00
2022-08-31T09:11:39.742Z,180.00
2022-08-31T09:12:43.521Z,180.00
2022-08-31T09:13:39.668Z,184.00
2022-08-31T09:14:39.681Z,188.00
2022-08-31T09:15:39.691Z,184.00
2022-08-31T09:16:39.919Z,184.00
2022-08-31T09:17:39.876Z,184.00
2022-08-31T09:18:39.681Z,184.00
2022-08-31T09:19:39.677Z,192.00
2022-08-31T09:20:39.676Z,212.00
2022-08-31T09:21:39.676Z,220.00
2022-08-31T09:22:39.676Z,228.00
2022-08-31T09:23:39.675Z,228.00
2022-08-31T09:24:39.670Z,228.00
2022-08-31T09:25:39.675Z,244.00
2022-08-31T09:26:39.679Z,248.00
2022-08-31T09:27:39.674Z,252.00
2022-08-31T09:28:39.669Z,252.00
2022-08-31T09:29:39.666Z,264.00
2022-08-31T09:30:39.685Z,272.00
2022-08-31T09:31:39.825Z,272.00
2022-08-31T09:32:39.674Z,276.00
2022-08-31T09:33:39.676Z,268.00
2022-08-31T09:34:39.679Z,256.00
2022-08-31T09:35:39.675Z,248.00
2022-08-31T09:36:39.676Z,244.00
2022-08-31T09:37:42.308Z,248.00
2022-08-31T09:38:39.680Z,248.00
2022-08-31T09:39:39.684Z,248.00
2022-08-31T09:40:39.707Z,252.00
2022-08-31T09:41:39.680Z,256.00
2022-08-31T09:42:39.674Z,260.00
2022-08-31T09:43:41.108Z,256.00
2022-08-31T09:44:39.668Z,256.00
2022-08-31T09:45:42.400Z,252.00
2022-08-31T09:46:39.674Z,252.00
2022-08-31T09:47:39.665Z,244.00
2022-08-31T09:48:39.669Z,256.00
2022-08-31T09:49:39.666Z,252.00
2022-08-31T09:50:39.672Z,252.00
2022-08-31T09:51:39.668Z,248.00
2022-08-31T09:52:39.684Z,240.00
2022-08-31T09:53:39.670Z,240.00
2022-08-31T09:54:44.386Z,240.00
2022-08-31T09:55:39.673Z,244.00
2022-08-31T09:56:39.683Z,244.00
2022-08-31T09:57:39.666Z,240.00
2022-08-31T09:58:39.683Z,244.00
2022-08-31T09:59:39.671Z,244.00
2022-08-31T10:00:39.677Z,256.00
2022-08-31T10:01:39.815Z,260.00
2022-08-31T10:02:39.668Z,276.00
2022-08-31T10:03:39.659Z,296.00
2022-08-31T10:04:39.703Z,308.00
2022-08-31T10:05:39.663Z,328.00
2022-08-31T10:06:39.669Z,348.00
2022-08-31T10:07:39.675Z,352.00
2022-08-31T10:08:39.663Z,388.00
2022-08-31T10:09:39.660Z,400.00
2022-08-31T10:10:39.653Z,428.00
2022-08-31T10:11:39.674Z,396.00
2022-08-31T10:12:39.662Z,356.00
2022-08-31T10:13:39.679Z,336.00
2022-08-31T10:14:39.653Z,320.00
2022-08-31T10:15:39.779Z,308.00
2022-08-31T10:16:39.660Z,300.00
2022-08-31T10:17:39.653Z,300.00
2022-08-31T10:18:39.736Z,308.00
2022-08-31T10:19:39.657Z,328.00
2022-08-31T10:20:39.667Z,332.00
2022-08-31T10:21:39.666Z,332.00
2022-08-31T10:22:39.674Z,316.00
2022-08-31T10:23:39.660Z,300.00
2022-08-31T10:24:39.908Z,292.00
2022-08-31T10:25:39.671Z,280.00
2022-08-31T10:26:39.650Z,272.00
2022-08-31T10:27:39.668Z,272.00
2022-08-31T10:28:39.645Z,280.00
2022-08-31T10:29:39.685Z,272.00
2022-08-31T10:30:39.787Z,268.00
2022-08-31T10:31:42.890Z,272.00
2022-08-31T10:32:39.879Z,276.00
2022-08-31T10:33:39.658Z,296.00
2022-08-31T10:34:40.472Z,304.00
2022-08-31T10:35:39.692Z,300.00
2022-08-31T10:36:39.669Z,312.00
2022-08-31T10:37:39.676Z,304.00
2022-08-31T10:38:39.659Z,296.00
2022-08-31T10:39:39.647Z,292.00
2022-08-31T10:40:39.755Z,304.00
2022-08-31T10:42:33.546Z,316.00
2022-08-31T10:43:33.540Z,320.00
2022-08-31T10:44:33.796Z,324.00
2022-08-31T10:45:33.820Z,332.00
2022-08-31T10:46:33.659Z,340.00
2022-08-31T10:47:34.465Z,324.00
2022-08-31T10:48:33.547Z,328.00
2022-08-31T10:49:33.537Z,348.00
2022-08-31T10:50:33.543Z,360.00
2022-08-31T10:51:33.545Z,400.00
2022-08-31T10:52:33.547Z,412.00
2022-08-31T10:53:34.875Z,436.00
2022-08-31T10:54:33.543Z,444.00
2022-08-31T10:55:33.538Z,440.00
2022-08-31T10:56:33.544Z,464.00
2022-08-31T10:57:33.543Z,452.00
2022-08-31T10:58:33.538Z,424.00
2022-08-31T10:59:33.558Z,396.00
2022-08-31T11:00:33.541Z,376.00
2022-08-31T11:01:33.572Z,352.00
2022-08-31T11:02:33.534Z,328.00
2022-08-31T11:03:33.588Z,364.00
2022-08-31T11:04:33.643Z,360.00
2022-08-31T11:05:33.555Z,404.00
2022-08-31T11:06:33.532Z,404.00
2022-08-31T11:07:33.552Z,408.00
2022-08-31T11:08:33.538Z,404.00
2022-08-31T11:09:33.545Z,384.00
2022-08-31T11:10:33.532Z,364.00
2022-08-31T11:11:33.536Z,380.00
2022-08-31T11:12:33.533Z,360.00
2022-08-31T11:13:33.541Z,340.00
2022-08-31T11:14:33.543Z,316.00
2022-08-31T11:15:33.635Z,296.00
2022-08-31T11:16:33.550Z,284.00
2022-08-31T11:17:33.535Z,292.00
2022-08-31T11:18:33.542Z,304.00
2022-08-31T11:19:33.560Z,284.00
2022-08-31T11:20:33.535Z,284.00
2022-08-31T11:21:33.539Z,268.00
2022-08-31T11:22:33.539Z,240.00
2022-08-31T11:23:33.568Z,256.00
2022-08-31T11:24:37.179Z,264.00
2022-08-31T11:25:33.552Z,276.00
2022-08-31T11:26:33.540Z,300.00
2022-08-31T11:27:33.539Z,264.00
2022-08-31T11:28:33.536Z,240.00
2022-08-31T11:29:34.414Z,240.00
2022-08-31T11:30:33.529Z,252.00
2022-08-31T11:31:33.632Z,264.00
2022-08-31T11:32:33.534Z,272.00
2022-08-31T11:33:33.543Z,296.00
2022-08-31T11:34:33.527Z,320.00
2022-08-31T11:35:33.533Z,364.00
2022-08-31T11:36:33.542Z,388.00
2022-08-31T11:37:33.554Z,384.00
2022-08-31T11:38:33.537Z,372.00
2022-08-31T11:39:33.541Z,356.00
2022-08-31T11:40:33.612Z,368.00
2022-08-31T11:41:33.541Z,368.00
2022-08-31T11:42:33.544Z,372.00
2022-08-31T11:43:33.547Z,384.00
2022-08-31T11:44:34.301Z,364.00
2022-08-31T11:45:33.539Z,340.00
2022-08-31T11:46:33.576Z,352.00
2022-08-31T11:47:33.543Z,364.00
2022-08-31T11:48:33.539Z,352.00
2022-08-31T11:49:33.688Z,336.00
2022-08-31T11:50:33.558Z,352.00
2022-08-31T11:51:38.632Z,324.00
2022-08-31T11:52:33.531Z,308.00
2022-08-31T11:53:33.534Z,336.00
2022-08-31T11:54:33.535Z,368.00
2022-08-31T11:55:33.541Z,388.00
2022-08-31T11:56:33.539Z,364.00
2022-08-31T11:57:37.584Z,396.00
2022-08-31T11:58:33.541Z,404.00
2022-08-31T11:59:34.211Z,420.00
2022-08-31T12:00:33.531Z,332.00
2022-08-31T12:01:33.535Z,272.00
2022-08-31T12:02:33.638Z,224.00
2022-08-31T12:03:33.545Z,232.00
2022-08-31T12:04:33.540Z,248.00
2022-08-31T12:05:33.602Z,200.00
2022-08-31T12:06:33.529Z,184.00
2022-08-31T12:07:33.535Z,180.00
2022-08-31T12:08:33.536Z,180.00
2022-08-31T12:09:33.538Z,192.00
2022-08-31T12:10:33.546Z,180.00
2022-08-31T12:11:33.543Z,176.00
2022-08-31T12:12:33.539Z,192.00
2022-08-31T12:13:33.539Z,192.00
2022-08-31T12:14:33.536Z,184.00
2022-08-31T12:15:33.614Z,188.00
2022-08-31T12:16:33.542Z,188.00
2022-08-31T12:17:33.555Z,172.00
2022-08-31T12:18:34.701Z,188.00
2022-08-31T12:19:33.551Z,188.00
2022-08-31T12:20:33.542Z,188.00
2022-08-31T12:21:33.538Z,172.00
2022-08-31T12:22:33.550Z,180.00
2022-08-31T12:23:33.779Z,184.00
2022-08-31T12:24:33.546Z,168.00
2022-08-31T12:25:33.550Z,180.00
2022-08-31T12:26:33.542Z,180.00
2022-08-31T12:27:33.546Z,184.00
2022-08-31T12:28:33.545Z,184.00
2022-08-31T12:29:33.541Z,184.00
2022-08-31T12:30:33.554Z,176.00
2022-08-31T12:31:33.598Z,180.00
2022-08-31T12:32:33.549Z,184.00
2022-08-31T12:33:33.543Z,184.00
2022-08-31T12:34:33.543Z,184.00
2022-08-31T12:35:33.558Z,184.00
2022-08-31T12:36:33.552Z,184.00
2022-08-31T12:37:33.546Z,180.00
2022-08-31T12:38:33.553Z,184.00
2022-08-31T12:39:33.551Z,184.00
2022-08-31T12:40:33.635Z,184.00
2022-08-31T12:41:33.562Z,188.00
2022-08-31T12:42:33.545Z,192.00
2022-08-31T12:43:33.554Z,196.00
2022-08-31T12:44:33.553Z,200.00
2022-08-31T12:45:33.546Z,196.00
2022-08-31T12:46:33.668Z,196.00
2022-08-31T12:47:33.573Z,200.00
2022-08-31T12:48:33.552Z,200.00
2022-08-31T12:49:33.557Z,212.00
2022-08-31T12:50:33.586Z,224.00
2022-08-31T12:51:33.556Z,232.00
2022-08-31T12:53:35.688Z,244.00